Terminal Aerodrome Forecast
Issued by NWS

Home | Current Version | Previous Version | Text Only | Print | Product List | Glossary On
Versions: 1 2 3 4 5 6 7 8 9 10 11 12 13 14 15 16 17 18 19
000
FTUS42 KFFC 021730
TAFRYY
TAF
KRYY 021730Z 0218/0318 32005KT P6SM OVC015
      TEMPO 0218/0221 SCT015 BKN040
     FM022100 31006KT P6SM OVC025
     FM030600 04003KT 3SM BR OVC008
     FM031000 07004KT 2SM -RA BR OVC004
     FM031600 10007KT 2SM BR OVC004=

USA.gov is the U.S. government's official web portal to all federal, state and local government web resources and services.